createdAt,value
2023-04-08T00:00:13.740Z,100847.06
2023-04-08T00:03:02.747Z,100840.84
2023-04-08T00:05:30.167Z,100842.19
2023-04-08T00:07:57.668Z,100841.94
2023-04-08T00:10:26.483Z,100848.13
2023-04-08T00:12:54.113Z,100853.16
2023-04-08T00:15:21.320Z,100860.25
2023-04-08T00:17:48.922Z,100859.13
2023-04-08T00:20:16.499Z,100869.38
2023-04-08T00:22:44.009Z,100855.00
2023-04-08T00:25:11.322Z,100855.38
2023-04-08T00:27:38.960Z,100850.75
2023-04-08T00:30:07.123Z,100858.78
2023-04-08T00:32:34.754Z,100844.50
2023-04-08T00:35:02.805Z,100857.19
2023-04-08T00:37:31.547Z,100859.97
2023-04-08T00:39:58.825Z,100860.25
2023-04-08T00:42:26.684Z,100855.72
2023-04-08T00:44:53.972Z,100859.22
2023-04-08T00:47:21.529Z,100870.56
2023-04-08T00:49:49.055Z,100875.22
2023-04-08T00:52:17.124Z,100865.66
2023-04-08T00:54:44.426Z,100873.75
2023-04-08T00:57:12.002Z,100873.44
2023-04-08T00:59:39.439Z,100868.03
2023-04-08T01:02:15.400Z,100878.06
2023-04-08T01:05:07.871Z,100881.31
2023-04-08T01:07:44.778Z,100889.00
2023-04-08T01:10:34.635Z,100885.81
2023-04-08T01:13:08.436Z,100894.94
2023-04-08T01:15:39.023Z,100892.88
2023-04-08T01:18:14.391Z,100890.25
2023-04-08T01:20:43.366Z,100893.41
2023-04-08T01:23:21.047Z,100897.94
2023-04-08T01:25:58.733Z,100890.84
2023-04-08T01:28:31.040Z,100901.34
2023-04-08T01:31:01.720Z,100894.94
2023-04-08T01:33:31.626Z,100900.28
2023-04-08T01:36:00.667Z,100908.19
2023-04-08T01:38:31.916Z,100909.91
2023-04-08T01:41:00.106Z,100907.34
2023-04-08T01:43:28.712Z,100907.00
2023-04-08T01:45:58.579Z,100908.81
2023-04-08T01:48:27.986Z,100917.94
2023-04-08T01:50:57.054Z,100915.34
2023-04-08T01:53:24.746Z,100920.31
2023-04-08T01:56:01.771Z,100918.13
2023-04-08T01:58:33.321Z,100916.75
2023-04-08T02:01:00.985Z,100926.69
2023-04-08T02:03:31.183Z,100920.50
2023-04-08T02:05:58.606Z,100916.19
2023-04-08T02:08:26.258Z,100921.78
2023-04-08T02:10:54.349Z,100910.44
2023-04-08T02:13:21.914Z,100915.38
2023-04-08T02:15:56.310Z,100925.72
2023-04-08T02:18:29.859Z,100924.22
2023-04-08T02:21:04.722Z,100928.09
2023-04-08T02:23:35.644Z,100930.66
2023-04-08T02:26:06.051Z,100927.53
2023-04-08T02:28:35.664Z,100927.56
2023-04-08T02:31:03.824Z,100934.09
2023-04-08T02:33:33.990Z,100930.78
2023-04-08T02:36:03.250Z,100927.47
2023-04-08T02:38:30.978Z,100926.06
2023-04-08T02:40:58.826Z,100927.03
2023-04-08T02:43:32.621Z,100930.13
2023-04-08T02:46:03.706Z,100936.75
2023-04-08T02:48:31.707Z,100947.09
2023-04-08T02:50:58.916Z,100950.84
2023-04-08T02:53:26.561Z,100938.41
2023-04-08T02:55:53.910Z,100945.56
2023-04-08T02:58:21.448Z,100933.31
2023-04-08T03:00:48.667Z,100946.50
2023-04-08T03:03:16.388Z,100942.66
2023-04-08T03:05:43.791Z,100943.97
2023-04-08T03:08:11.381Z,100949.13
2023-04-08T03:10:38.581Z,100942.88
2023-04-08T03:13:06.165Z,100937.97
2023-04-08T03:15:33.548Z,100951.59
2023-04-08T03:18:01.110Z,100950.50
2023-04-08T03:20:28.309Z,100944.38
2023-04-08T03:22:56.123Z,100950.91
2023-04-08T03:25:23.313Z,100951.13
2023-04-08T03:27:51.243Z,100945.66
2023-04-08T03:30:18.654Z,100949.28
2023-04-08T03:32:46.355Z,100959.56
2023-04-08T03:35:13.670Z,100955.38
2023-04-08T03:37:41.233Z,100968.78
2023-04-08T03:40:09.345Z,100969.66
2023-04-08T03:42:36.946Z,100965.53
2023-04-08T03:45:04.872Z,100976.78
2023-04-08T03:47:32.402Z,100965.75
2023-04-08T03:49:59.669Z,100967.19
2023-04-08T03:52:27.262Z,100969.53
2023-04-08T03:54:54.510Z,100977.53
2023-04-08T03:57:22.047Z,100972.28
2023-04-08T03:59:49.285Z,100976.56
2023-04-08T04:02:16.979Z,100986.31
2023-04-08T04:04:44.364Z,100981.81
2023-04-08T04:07:11.893Z,100986.63
2023-04-08T04:09:39.048Z,100980.00
2023-04-08T04:12:06.537Z,100982.69
2023-04-08T04:14:33.756Z,100986.53
2023-04-08T04:17:01.369Z,100987.47
2023-04-08T04:19:32.030Z,100993.81
2023-04-08T04:21:59.820Z,101002.38
2023-04-08T04:24:27.068Z,101002.03
2023-04-08T04:26:54.565Z,100991.34
2023-04-08T04:29:21.755Z,101002.38
2023-04-08T04:31:49.269Z,101001.38
2023-04-08T04:34:17.308Z,100995.81
2023-04-08T04:36:44.907Z,101008.66
2023-04-08T04:39:12.107Z,101003.63
2023-04-08T04:41:40.724Z,101002.78
2023-04-08T04:44:07.999Z,101014.81
2023-04-08T04:46:35.580Z,101023.19
2023-04-08T04:49:02.902Z,101021.25
2023-04-08T04:51:33.206Z,101022.19
2023-04-08T04:54:00.571Z,101014.72
2023-04-08T04:56:28.045Z,101025.06
2023-04-08T04:58:55.233Z,101029.81
2023-04-08T05:01:22.771Z,101034.66
2023-04-08T05:03:50.068Z,101036.66
2023-04-08T05:06:17.609Z,101034.13
2023-04-08T05:08:44.902Z,101039.09
2023-04-08T05:11:12.673Z,101038.69
2023-04-08T05:13:40.002Z,101038.69
2023-04-08T05:16:07.852Z,101033.69
2023-04-08T05:18:35.377Z,101034.69
2023-04-08T05:21:03.398Z,101030.34
2023-04-08T05:23:30.647Z,101038.41
2023-04-08T05:25:58.164Z,101034.72
2023-04-08T05:28:25.649Z,101050.38
2023-04-08T05:30:54.624Z,101048.19
2023-04-08T05:33:21.869Z,101041.75
2023-04-08T05:35:49.378Z,101043.31
2023-04-08T05:38:16.664Z,101050.16
2023-04-08T05:40:44.352Z,101051.72
2023-04-08T05:43:11.519Z,101054.78
2023-04-08T05:45:38.982Z,101053.16
2023-04-08T05:48:06.364Z,101067.94
2023-04-08T05:50:36.333Z,101054.84
2023-04-08T05:53:03.582Z,101067.22
2023-04-08T05:55:31.189Z,101070.75
2023-04-08T05:57:58.399Z,101061.69
2023-04-08T06:00:26.933Z,101068.66
2023-04-08T06:02:54.414Z,101066.59
2023-04-08T06:05:22.076Z,101070.81
2023-04-08T06:07:49.287Z,101074.69
2023-04-08T06:10:16.855Z,101072.34
2023-04-08T06:12:44.069Z,101074.63
2023-04-08T06:15:11.700Z,101080.19
2023-04-08T06:17:39.460Z,101085.84
2023-04-08T06:20:09.456Z,101092.91
2023-04-08T06:22:36.956Z,101086.09
2023-04-08T06:25:04.673Z,101091.78
2023-04-08T06:27:32.076Z,101098.78
2023-04-08T06:29:59.538Z,101099.25
2023-04-08T06:32:26.816Z,101105.50
2023-04-08T06:34:54.286Z,101108.78
2023-04-08T06:37:21.581Z,101099.78
2023-04-08T06:39:49.060Z,101109.91
2023-04-08T06:42:16.253Z,101109.28
2023-04-08T06:45:00.027Z,101114.91
2023-04-08T06:47:27.240Z,101110.28
2023-04-08T06:49:54.767Z,101108.78
2023-04-08T06:52:21.978Z,101118.97
2023-04-08T06:54:49.533Z,101117.59
2023-04-08T06:57:16.765Z,101112.59
2023-04-08T06:59:44.231Z,101130.78
2023-04-08T07:02:11.776Z,101121.88
2023-04-08T07:04:39.322Z,101114.25
2023-04-08T07:07:07.394Z,101129.22
2023-04-08T07:09:36.993Z,101130.06
2023-04-08T07:12:05.042Z,101126.72
2023-04-08T07:14:32.638Z,101132.41
2023-04-08T07:16:59.864Z,101128.56
2023-04-08T07:19:27.749Z,101147.78
2023-04-08T07:21:54.978Z,101129.50
2023-04-08T07:24:22.474Z,101133.81
2023-04-08T07:26:49.793Z,101145.38
2023-04-08T07:29:17.394Z,101139.03
2023-04-08T07:31:44.939Z,101148.34
2023-04-08T07:34:12.404Z,101152.00
2023-04-08T07:36:40.835Z,101150.91
2023-04-08T07:39:08.377Z,101144.88
2023-04-08T07:41:35.632Z,101149.34
2023-04-08T07:44:03.185Z,101148.56
2023-04-08T07:46:31.728Z,101157.28
2023-04-08T07:48:59.255Z,101152.22
2023-04-08T07:51:27.752Z,101162.31
2023-04-08T07:53:55.302Z,101156.19
2023-04-08T07:56:22.552Z,101161.75
2023-04-08T07:58:53.311Z,101164.25
2023-04-08T08:01:23.035Z,101165.19
2023-04-08T08:03:52.900Z,101178.97
2023-04-08T08:06:20.930Z,101168.00
2023-04-08T08:08:48.564Z,101164.56
2023-04-08T08:11:15.838Z,101172.69
2023-04-08T08:13:43.454Z,101183.56
2023-04-08T08:16:12.074Z,101181.28
2023-04-08T08:18:41.157Z,101175.66
2023-04-08T08:21:09.068Z,101178.03
2023-04-08T08:23:37.912Z,101193.31
2023-04-08T08:26:07.780Z,101186.06
2023-04-08T08:28:35.589Z,101187.75
2023-04-08T08:31:03.669Z,101196.31
2023-04-08T08:33:31.446Z,101190.31
2023-04-08T08:35:58.935Z,101190.75
2023-04-08T08:38:27.185Z,101187.09
2023-04-08T08:40:56.372Z,101187.00
2023-04-08T08:43:25.398Z,101202.91
2023-04-08T08:45:53.246Z,101203.78
2023-04-08T08:48:20.903Z,101186.25
2023-04-08T08:50:48.147Z,101199.50
2023-04-08T08:53:15.653Z,101211.06
2023-04-08T08:58:13.796Z,101195.22
2023-04-08T09:00:45.548Z,101205.75
2023-04-08T09:03:23.757Z,101206.75
2023-04-08T09:05:59.507Z,101208.84
2023-04-08T09:08:35.557Z,101203.91
2023-04-08T09:11:22.496Z,101201.94
2023-04-08T09:13:50.648Z,101203.34
2023-04-08T09:16:23.050Z,101203.00
2023-04-08T09:18:56.115Z,101216.03
2023-04-08T09:21:27.668Z,101215.44
2023-04-08T09:23:55.307Z,101215.34
2023-04-08T09:26:24.900Z,101223.47
2023-04-08T09:29:25.224Z,101218.16
2023-04-08T09:32:01.140Z,101212.81
2023-04-08T09:34:30.954Z,101219.38
2023-04-08T09:36:58.217Z,101220.72
2023-04-08T09:39:25.895Z,101210.34
2023-04-08T09:41:58.527Z,101216.94
2023-04-08T09:44:29.315Z,101218.69
2023-04-08T09:47:08.503Z,101227.59
2023-04-08T09:49:51.544Z,101220.22
2023-04-08T09:52:24.420Z,101220.06
2023-04-08T09:54:55.732Z,101220.06
2023-04-08T09:57:37.198Z,101217.88
2023-04-08T10:00:11.085Z,101209.59
2023-04-08T10:03:05.613Z,101210.75
2023-04-08T10:05:39.779Z,101214.78
2023-04-08T10:08:07.738Z,101216.69
2023-04-08T10:10:39.859Z,101216.06
2023-04-08T10:13:08.386Z,101207.34
2023-04-08T10:15:37.664Z,101210.50
2023-04-08T10:18:05.766Z,101211.75
2023-04-08T10:20:36.489Z,101202.78
2023-04-08T10:23:05.523Z,101201.47
2023-04-08T10:25:40.563Z,101210.13
2023-04-08T10:28:19.781Z,101201.22
2023-04-08T10:30:48.209Z,101199.13
2023-04-08T10:33:19.530Z,101194.88
2023-04-08T10:35:50.184Z,101189.28
2023-04-08T10:38:17.859Z,101199.16
2023-04-08T10:40:46.063Z,101192.28
2023-04-08T10:43:15.148Z,101189.84
2023-04-08T10:45:45.784Z,101198.59
2023-04-08T10:48:18.792Z,101183.97
2023-04-08T10:50:55.199Z,101182.75
2023-04-08T10:53:37.831Z,101188.78
2023-04-08T10:56:13.282Z,101188.91
2023-04-08T10:58:59.920Z,101180.75
2023-04-08T11:01:27.885Z,101184.94
2023-04-08T11:03:55.358Z,101180.13
2023-04-08T11:06:23.518Z,101192.41
2023-04-08T11:08:50.703Z,101171.66
2023-04-08T11:11:19.486Z,101179.50
2023-04-08T11:13:53.287Z,101170.25
2023-04-08T11:16:22.569Z,101171.59
2023-04-08T11:18:51.477Z,101164.63
2023-04-08T11:21:19.181Z,101176.41
2023-04-08T11:23:50.167Z,101169.59
2023-04-08T11:26:19.319Z,101165.75
2023-04-08T11:28:49.224Z,101171.44
2023-04-08T11:31:17.771Z,101168.38
2023-04-08T11:33:49.912Z,101161.06
2023-04-08T11:36:18.929Z,101155.13
2023-04-08T11:38:48.174Z,101171.75
2023-04-08T11:41:16.362Z,101169.50
2023-04-08T11:43:54.471Z,101168.25
2023-04-08T11:46:23.124Z,101171.78
2023-04-08T11:49:08.133Z,101178.69
2023-04-08T11:55:28.387Z,101170.63
2023-04-08T11:57:57.427Z,101171.31
2023-04-08T12:00:24.769Z,101162.31
2023-04-08T12:02:53.132Z,101174.53
2023-04-08T12:05:21.161Z,101180.66
2023-04-08T12:07:48.864Z,101165.91
2023-04-08T12:10:16.161Z,101158.06
2023-04-08T12:12:43.694Z,101170.03
2023-04-08T12:15:11.603Z,101177.13
2023-04-08T12:17:39.123Z,101169.69
2023-04-08T12:20:07.760Z,101173.50
2023-04-08T12:22:35.382Z,101170.75
2023-04-08T12:25:04.132Z,101164.28
2023-04-08T12:27:33.590Z,101156.53
2023-04-08T12:30:02.296Z,101149.53
2023-04-08T12:32:30.848Z,101162.78
2023-04-08T12:34:58.160Z,101154.84
2023-04-08T12:37:25.646Z,101155.03
2023-04-08T12:39:52.854Z,101154.94
2023-04-08T12:42:20.371Z,101160.59
2023-04-08T12:44:47.666Z,101158.66
2023-04-08T12:47:15.336Z,101158.09
2023-04-08T12:49:49.308Z,101156.81
2023-04-08T12:52:17.774Z,101156.19
2023-04-08T12:54:45.124Z,101161.34
2023-04-08T12:57:12.714Z,101155.03
2023-04-08T12:59:40.288Z,101145.72
2023-04-08T13:02:08.237Z,101162.25
2023-04-08T13:04:35.704Z,101150.97
2023-04-08T13:07:04.525Z,101164.81
2023-04-08T13:09:31.776Z,101169.72
2023-04-08T13:11:59.759Z,101180.63
2023-04-08T13:14:27.527Z,101172.97
2023-04-08T13:16:55.138Z,101179.59
2023-04-08T13:19:22.452Z,101171.50
2023-04-08T13:21:49.912Z,101183.56
2023-04-08T13:24:17.149Z,101166.97
2023-04-08T13:26:44.665Z,101179.06
2023-04-08T13:29:11.974Z,101174.53
2023-04-08T13:31:39.577Z,101169.69
2023-04-08T13:34:07.167Z,101173.97
2023-04-08T13:36:34.641Z,101172.22
2023-04-08T13:39:02.187Z,101173.06
2023-04-08T13:41:30.187Z,101172.13
2023-04-08T13:43:57.398Z,101180.63
2023-04-08T13:46:24.996Z,101178.09
2023-04-08T13:48:52.726Z,101174.94
2023-04-08T13:51:20.503Z,101168.59
2023-04-08T13:53:47.782Z,101179.38
2023-04-08T13:56:15.478Z,101175.81
2023-04-08T13:58:42.898Z,101183.47
2023-04-08T14:01:11.228Z,101174.59
2023-04-08T14:03:38.610Z,101185.03
2023-04-08T14:06:06.107Z,101188.44
2023-04-08T14:08:33.331Z,101173.47
2023-04-08T14:11:00.952Z,101188.97
2023-04-08T14:13:28.220Z,101179.06
2023-04-08T14:15:58.525Z,101186.22
2023-04-08T14:18:26.238Z,101181.69
2023-04-08T14:20:53.663Z,101175.44
2023-04-08T14:23:21.280Z,101179.69
2023-04-08T14:25:48.868Z,101178.31
2023-04-08T14:28:16.209Z,101183.56
2023-04-08T14:30:43.811Z,101177.72
2023-04-08T14:33:11.462Z,101191.28
2023-04-08T14:35:39.011Z,101179.31
2023-04-08T14:38:06.399Z,101197.31
2023-04-08T14:40:34.728Z,101194.69
2023-04-08T14:43:03.160Z,101179.66
2023-04-08T14:45:31.134Z,101189.00
2023-04-08T14:47:58.327Z,101187.84
2023-04-08T14:50:25.822Z,101188.84
2023-04-08T14:52:53.090Z,101183.72
2023-04-08T14:55:22.588Z,101184.00
2023-04-08T14:57:49.873Z,101190.41
2023-04-08T15:00:17.520Z,101185.38
2023-04-08T15:02:44.874Z,101187.44
2023-04-08T15:05:12.465Z,101181.13
2023-04-08T15:07:39.836Z,101184.78
2023-04-08T15:10:07.946Z,101184.56
2023-04-08T15:12:36.478Z,101177.69
2023-04-08T15:15:04.779Z,101186.47
2023-04-08T15:17:32.232Z,101169.59
2023-04-08T15:19:59.839Z,101188.56
2023-04-08T15:22:27.185Z,101184.50
2023-04-08T15:24:54.745Z,101178.97
2023-04-08T15:27:22.901Z,101169.88
2023-04-08T15:29:50.394Z,101168.44
2023-04-08T15:32:17.567Z,101173.63
2023-04-08T15:34:45.132Z,101170.66
2023-04-08T15:37:12.330Z,101174.44
2023-04-08T15:39:41.780Z,101171.28
2023-04-08T15:42:09.094Z,101175.16
2023-04-08T15:44:36.881Z,101179.13
2023-04-08T15:47:04.839Z,101177.38
2023-04-08T15:49:32.478Z,101161.28
2023-04-08T15:51:59.788Z,101167.38
2023-04-08T15:54:29.464Z,101163.72
2023-04-08T15:56:58.363Z,101170.72
2023-04-08T15:59:29.801Z,101175.75
2023-04-08T16:01:57.299Z,101166.66
2023-04-08T16:04:25.124Z,101172.81
2023-04-08T16:06:52.433Z,101180.13
2023-04-08T16:09:25.527Z,101178.50
2023-04-08T16:11:53.847Z,101170.06
2023-04-08T16:14:21.458Z,101183.53
2023-04-08T16:16:49.294Z,101181.31
2023-04-08T16:19:17.485Z,101176.97
2023-04-08T16:21:44.744Z,101184.28
2023-04-08T16:24:12.235Z,101187.22
2023-04-08T16:26:40.911Z,101191.50
2023-04-08T16:29:08.503Z,101184.66
2023-04-08T16:31:35.969Z,101190.03
2023-04-08T16:34:04.379Z,101180.63
2023-04-08T16:36:31.569Z,101189.09
2023-04-08T16:38:59.181Z,101187.63
2023-04-08T16:41:26.552Z,101188.13
2023-04-08T16:43:54.117Z,101184.97
2023-04-08T16:46:22.117Z,101191.31
2023-04-08T16:48:49.575Z,101195.94
2023-04-08T16:51:17.641Z,101194.75
2023-04-08T16:53:45.143Z,101193.66
2023-04-08T16:56:16.480Z,101198.53
2023-04-08T16:58:44.085Z,101202.94
2023-04-08T17:01:14.198Z,101204.94
2023-04-08T17:03:42.119Z,101199.44
2023-04-08T17:06:12.151Z,101205.06
2023-04-08T17:08:43.573Z,101203.94
2023-04-08T17:11:13.500Z,101213.81
2023-04-08T17:13:42.706Z,101207.06
2023-04-08T17:16:15.001Z,101206.19
2023-04-08T17:18:44.294Z,101216.19
2023-04-08T17:21:14.116Z,101217.47
2023-04-08T17:23:41.936Z,101214.69
2023-04-08T17:26:10.115Z,101215.47
2023-04-08T17:28:38.106Z,101213.97
2023-04-08T17:31:05.378Z,101210.38
2023-04-08T17:33:34.092Z,101214.03
2023-04-08T17:36:01.626Z,101212.66
2023-04-08T17:38:29.278Z,101216.75
2023-04-08T17:40:56.597Z,101213.78
2023-04-08T17:43:24.295Z,101215.16
2023-04-08T17:45:51.751Z,101220.31
2023-04-08T17:48:19.281Z,101221.94
2023-04-08T17:50:46.512Z,101227.84
2023-04-08T17:53:14.144Z,101216.50
2023-04-08T17:55:41.342Z,101226.56
2023-04-08T17:58:08.979Z,101234.06
2023-04-08T18:00:36.222Z,101235.56
2023-04-08T18:03:04.362Z,101236.63
2023-04-08T18:05:32.045Z,101228.59
2023-04-08T18:07:59.705Z,101237.16
2023-04-08T18:10:27.018Z,101240.38
2023-04-08T18:13:03.751Z,101245.63
2023-04-08T18:15:36.221Z,101248.50
2023-04-08T18:18:04.227Z,101247.75
2023-04-08T18:20:35.699Z,101238.22
2023-04-08T18:23:06.379Z,101242.84
2023-04-08T18:25:34.669Z,101245.41
2023-04-08T18:28:02.260Z,101249.34
2023-04-08T18:30:30.371Z,101235.97
2023-04-08T18:32:58.077Z,101255.69
2023-04-08T18:35:25.955Z,101254.72
2023-04-08T18:37:53.576Z,101258.47
2023-04-08T18:40:20.889Z,101250.78
2023-04-08T18:42:48.473Z,101265.97
2023-04-08T18:45:15.844Z,101273.72
2023-04-08T18:47:43.445Z,101268.16
2023-04-08T18:50:10.887Z,101281.56
2023-04-08T18:52:39.052Z,101281.38
2023-04-08T18:55:06.620Z,101290.59
2023-04-08T18:57:34.589Z,101293.47
2023-04-08T19:00:01.960Z,101290.84
2023-04-08T19:02:29.572Z,101280.13
2023-04-08T19:04:58.192Z,101295.69
2023-04-08T19:07:26.121Z,101288.50
2023-04-08T19:09:59.577Z,101290.63
2023-04-08T19:12:27.382Z,101290.78
2023-04-08T19:14:54.887Z,101284.63
2023-04-08T19:17:22.353Z,101281.97
2023-04-08T19:19:49.538Z,101280.81
2023-04-08T19:22:17.147Z,101286.16
2023-04-08T19:24:44.728Z,101283.97
2023-04-08T19:27:14.091Z,101277.41
2023-04-08T19:29:41.353Z,101275.13
2023-04-08T19:32:08.982Z,101285.88
2023-04-08T19:34:39.433Z,101287.25
2023-04-08T19:37:07.459Z,101293.47
2023-04-08T19:39:34.669Z,101279.97
2023-04-08T19:42:02.218Z,101290.03
2023-04-08T19:44:29.441Z,101289.59
2023-04-08T19:46:57.912Z,101285.63
2023-04-08T19:49:25.352Z,101279.75
2023-04-08T19:51:53.021Z,101272.53
2023-04-08T19:54:20.234Z,101279.94
2023-04-08T19:56:47.762Z,101275.34
2023-04-08T19:59:16.745Z,101274.59
2023-04-08T20:01:44.331Z,101269.66
2023-04-08T20:04:11.700Z,101279.09
2023-04-08T20:06:39.242Z,101279.75
2023-04-08T20:09:06.539Z,101288.19
2023-04-08T20:11:34.557Z,101278.88
2023-04-08T20:14:03.714Z,101283.66
2023-04-08T20:16:32.069Z,101274.13
2023-04-08T20:18:59.377Z,101280.78
2023-04-08T20:21:26.845Z,101273.50
2023-04-08T20:23:54.192Z,101280.13
2023-04-08T20:26:21.689Z,101276.44
2023-04-08T20:28:49.632Z,101275.31
2023-04-08T20:31:17.405Z,101275.59
2023-04-08T20:33:45.635Z,101272.25
2023-04-08T20:36:13.809Z,101276.50
2023-04-08T20:38:42.701Z,101281.56
2023-04-08T20:41:10.441Z,101278.72
2023-04-08T20:43:39.412Z,101268.13
2023-04-08T20:46:07.619Z,101280.28
2023-04-08T20:48:34.803Z,101281.13
2023-04-08T20:51:02.928Z,101274.66
2023-04-08T20:53:30.185Z,101277.56
2023-04-08T20:55:57.644Z,101287.09
2023-04-08T20:58:24.839Z,101284.47
2023-04-08T21:00:52.512Z,101288.81
2023-04-08T21:03:20.773Z,101291.56
2023-04-08T21:05:49.074Z,101287.47
2023-04-08T21:08:16.293Z,101292.63
2023-04-08T21:10:43.839Z,101287.88
2023-04-08T21:13:11.075Z,101289.81
2023-04-08T21:15:38.582Z,101290.75
2023-04-08T21:18:11.132Z,101274.03
2023-04-08T21:20:41.894Z,101288.72
2023-04-08T21:23:09.218Z,101295.34
2023-04-08T21:25:36.662Z,101292.41
2023-04-08T21:28:04.991Z,101280.72
2023-04-08T21:30:32.507Z,101295.41
2023-04-08T21:32:59.721Z,101290.03
2023-04-08T21:35:27.265Z,101279.09
2023-04-08T21:37:55.004Z,101276.84
2023-04-08T21:40:22.641Z,101280.59
2023-04-08T21:42:49.878Z,101292.28
2023-04-08T21:45:17.887Z,101284.47
2023-04-08T21:47:45.606Z,101282.44
2023-04-08T21:50:13.145Z,101289.84
2023-04-08T21:52:43.008Z,101290.16
2023-04-08T21:55:11.227Z,101283.28
2023-04-08T21:57:39.306Z,101283.81
2023-04-08T22:00:13.180Z,101286.50
2023-04-08T22:02:43.957Z,101286.72
2023-04-08T22:05:11.817Z,101285.41
2023-04-08T22:07:39.079Z,101289.41
2023-04-08T22:10:07.454Z,101282.31
2023-04-08T22:12:34.867Z,101288.09
2023-04-08T22:15:03.086Z,101291.50
2023-04-08T22:17:30.277Z,101286.34
2023-04-08T22:19:57.805Z,101279.72
2023-04-08T22:22:24.974Z,101264.03
2023-04-08T22:24:52.638Z,101270.25
2023-04-08T22:27:19.906Z,101262.22
2023-04-08T22:29:47.381Z,101271.53
2023-04-08T22:32:14.930Z,101269.41
2023-04-08T22:34:42.450Z,101270.25
2023-04-08T22:37:09.663Z,101269.81
2023-04-08T22:39:37.177Z,101269.69
2023-04-08T22:42:04.350Z,101269.66
2023-04-08T22:44:32.066Z,101268.47
2023-04-08T22:46:59.354Z,101275.44
2023-04-08T22:49:27.143Z,101277.34
2023-04-08T22:51:54.302Z,101266.91
2023-04-08T22:54:21.872Z,101279.50
2023-04-08T22:56:49.114Z,101275.41
2023-04-08T22:59:16.584Z,101275.72
2023-04-08T23:01:45.194Z,101274.56
2023-04-08T23:04:12.863Z,101276.03
2023-04-08T23:06:40.238Z,101269.94
2023-04-08T23:09:07.791Z,101272.72
2023-04-08T23:11:34.959Z,101266.47
2023-04-08T23:14:02.585Z,101264.56
2023-04-08T23:16:30.928Z,101260.28
2023-04-08T23:18:58.413Z,101260.56
2023-04-08T23:21:27.120Z,101250.88
2023-04-08T23:23:54.654Z,101255.59
2023-04-08T23:26:22.040Z,101262.06
2023-04-08T23:28:49.845Z,101246.59
2023-04-08T23:31:17.254Z,101247.53
2023-04-08T23:33:44.736Z,101242.84
2023-04-08T23:36:12.860Z,101246.41
2023-04-08T23:38:40.532Z,101239.75
2023-04-08T23:41:08.258Z,101243.69
2023-04-08T23:43:36.373Z,101249.59
2023-04-08T23:46:03.661Z,101246.44
2023-04-08T23:48:31.218Z,101238.59
2023-04-08T23:50:58.491Z,101238.38
2023-04-08T23:53:25.984Z,101247.56
2023-04-08T23:55:53.156Z,101246.09
2023-04-08T23:58:20.751Z,101239.38
